createdAt,value
2022-08-31T00:00:20.248Z,74.50
2022-08-31T00:01:20.244Z,74.60
2022-08-31T00:02:20.278Z,75.21
2022-08-31T00:03:20.404Z,76.05
2022-08-31T00:04:20.296Z,76.46
2022-08-31T00:05:20.205Z,75.04
2022-08-31T00:06:20.243Z,74.50
2022-08-31T00:07:20.210Z,74.10
2022-08-31T00:08:20.198Z,73.66
2022-08-31T00:09:20.179Z,73.42
2022-08-31T00:10:20.169Z,72.51
2022-08-31T00:11:21.167Z,73.02
2022-08-31T00:12:20.182Z,72.71
2022-08-31T00:13:20.256Z,72.51
2022-08-31T00:14:20.159Z,72.27
2022-08-31T00:15:20.142Z,71.97
2022-08-31T00:16:20.223Z,72.48
2022-08-31T00:17:20.127Z,71.97
2022-08-31T00:18:20.137Z,71.97
2022-08-31T00:19:20.124Z,72.38
2022-08-31T00:20:33.280Z,71.73
2022-08-31T00:21:21.106Z,71.44
2022-08-31T00:22:20.095Z,71.06
2022-08-31T00:23:20.218Z,71.47
2022-08-31T00:24:20.078Z,71.57
2022-08-31T00:25:20.063Z,71.47
2022-08-31T00:26:20.059Z,71.84
2022-08-31T00:27:20.052Z,70.62
2022-08-31T00:28:20.093Z,71.23
2022-08-31T00:29:20.060Z,71.84
2022-08-31T00:30:20.030Z,71.26
2022-08-31T00:31:20.069Z,72.38
2022-08-31T00:32:21.652Z,71.87
2022-08-31T00:33:20.192Z,71.97
2022-08-31T00:34:20.010Z,71.97
2022-08-31T00:35:20.006Z,71.57
2022-08-31T00:36:20.012Z,72.07
2022-08-31T00:37:19.983Z,72.38
2022-08-31T00:38:20.540Z,72.17
2022-08-31T00:39:19.968Z,72.00
2022-08-31T00:40:19.995Z,71.77
2022-08-31T00:41:19.950Z,72.58
2022-08-31T00:42:19.949Z,72.27
2022-08-31T00:43:19.957Z,72.41
2022-08-31T00:44:19.931Z,72.58
2022-08-31T00:45:19.937Z,72.48
2022-08-31T00:46:19.929Z,72.27
2022-08-31T00:47:19.908Z,71.70
2022-08-31T00:48:19.948Z,72.41
2022-08-31T00:49:19.888Z,72.27
2022-08-31T00:50:19.878Z,71.97
2022-08-31T00:51:19.882Z,71.97
2022-08-31T00:52:19.872Z,72.38
2022-08-31T00:53:19.884Z,71.97
2022-08-31T00:54:19.863Z,71.87
2022-08-31T00:55:19.857Z,72.58
2022-08-31T00:56:19.852Z,72.07
2022-08-31T00:57:20.894Z,72.17
2022-08-31T00:58:19.845Z,71.97
2022-08-31T00:59:19.821Z,72.38
2022-08-31T01:00:19.840Z,72.17
2022-08-31T01:01:19.838Z,72.58
2022-08-31T01:02:19.874Z,72.27
2022-08-31T01:03:19.915Z,72.38
2022-08-31T01:04:19.799Z,71.87
2022-08-31T01:05:19.790Z,72.38
2022-08-31T01:06:19.797Z,72.38
2022-08-31T01:07:19.777Z,71.87
2022-08-31T01:08:19.904Z,72.58
2022-08-31T01:09:20.737Z,72.48
2022-08-31T01:10:19.745Z,72.17
2022-08-31T01:11:19.742Z,72.38
2022-08-31T01:12:19.735Z,72.78
2022-08-31T01:13:19.839Z,72.78
2022-08-31T01:14:19.761Z,73.58
2022-08-31T01:15:19.716Z,72.48
2022-08-31T01:16:19.823Z,73.52
2022-08-31T01:17:19.713Z,73.49
2022-08-31T01:18:19.726Z,72.27
2022-08-31T01:19:19.702Z,72.91
2022-08-31T01:20:19.689Z,72.51
2022-08-31T01:21:19.674Z,73.08
2022-08-31T01:22:19.689Z,72.98
2022-08-31T01:23:19.809Z,72.98
2022-08-31T01:24:19.692Z,72.07
2022-08-31T01:25:19.641Z,72.38
2022-08-31T01:26:19.671Z,72.24
2022-08-31T01:27:19.700Z,72.34
2022-08-31T01:28:19.653Z,72.58
2022-08-31T01:29:19.637Z,72.24
2022-08-31T01:30:19.649Z,72.54
2022-08-31T01:31:19.826Z,72.04
2022-08-31T01:32:19.607Z,72.38
2022-08-31T01:33:19.836Z,72.34
2022-08-31T01:34:19.599Z,72.27
2022-08-31T01:35:19.593Z,72.38
2022-08-31T01:36:19.592Z,72.27
2022-08-31T01:37:19.926Z,72.17
2022-08-31T01:38:20.594Z,72.88
2022-08-31T01:39:19.649Z,72.64
2022-08-31T01:40:19.652Z,72.68
2022-08-31T01:41:19.606Z,72.68
2022-08-31T01:42:19.561Z,72.54
2022-08-31T01:43:19.799Z,72.38
2022-08-31T01:44:19.563Z,72.48
2022-08-31T01:45:19.518Z,72.78
2022-08-31T01:46:19.554Z,72.38
2022-08-31T01:47:19.516Z,73.52
2022-08-31T01:48:20.401Z,73.22
2022-08-31T01:49:19.487Z,73.02
2022-08-31T01:50:19.499Z,73.32
2022-08-31T01:51:19.510Z,73.52
2022-08-31T01:52:19.507Z,73.52
2022-08-31T01:53:19.722Z,73.72
2022-08-31T01:54:19.564Z,73.82
2022-08-31T01:55:19.481Z,73.93
2022-08-31T01:56:19.472Z,73.72
2022-08-31T01:57:19.473Z,73.62
2022-08-31T01:58:20.449Z,73.62
2022-08-31T01:59:19.428Z,73.82
2022-08-31T02:00:19.425Z,73.72
2022-08-31T02:01:32.919Z,74.13
2022-08-31T02:02:20.465Z,73.93
2022-08-31T02:03:19.489Z,74.06
2022-08-31T02:04:19.412Z,74.22
2022-08-31T02:05:19.391Z,74.43
2022-08-31T02:06:19.426Z,74.53
2022-08-31T02:07:19.396Z,73.93
2022-08-31T02:08:19.399Z,74.37
2022-08-31T02:09:19.399Z,74.53
2022-08-31T02:10:19.337Z,74.53
2022-08-31T02:11:19.351Z,74.33
2022-08-31T02:12:19.329Z,75.13
2022-08-31T02:13:19.576Z,75.13
2022-08-31T02:14:19.374Z,75.17
2022-08-31T02:15:19.309Z,75.48
2022-08-31T02:16:19.389Z,75.04
2022-08-31T02:17:19.318Z,75.17
2022-08-31T02:18:19.305Z,75.64
2022-08-31T02:19:19.349Z,75.37
2022-08-31T02:20:19.280Z,75.98
2022-08-31T02:21:20.268Z,75.98
2022-08-31T02:22:19.317Z,75.68
2022-08-31T02:23:19.348Z,75.68
2022-08-31T02:24:19.250Z,75.78
2022-08-31T02:25:19.294Z,76.28
2022-08-31T02:26:19.239Z,76.22
2022-08-31T02:27:19.244Z,76.72
2022-08-31T02:28:19.300Z,77.03
2022-08-31T02:29:19.218Z,76.62
2022-08-31T02:30:19.198Z,76.72
2022-08-31T02:31:19.219Z,76.93
2022-08-31T02:32:20.042Z,76.62
2022-08-31T02:33:19.384Z,76.42
2022-08-31T02:34:19.195Z,76.62
2022-08-31T02:35:19.200Z,77.03
2022-08-31T02:36:19.192Z,77.43
2022-08-31T02:37:20.928Z,78.04
2022-08-31T02:38:19.931Z,77.73
2022-08-31T02:39:20.318Z,77.84
2022-08-31T02:40:19.137Z,77.94
2022-08-31T02:41:19.137Z,77.84
2022-08-31T02:42:19.120Z,78.14
2022-08-31T02:43:25.096Z,78.38
2022-08-31T02:44:20.117Z,78.17
2022-08-31T02:45:19.102Z,78.68
2022-08-31T02:46:19.185Z,78.58
2022-08-31T02:47:19.092Z,78.85
2022-08-31T02:48:19.160Z,78.88
2022-08-31T02:49:19.082Z,78.78
2022-08-31T02:50:19.087Z,78.88
2022-08-31T02:51:19.076Z,78.99
2022-08-31T02:52:19.059Z,79.39
2022-08-31T02:53:19.182Z,78.99
2022-08-31T02:54:19.042Z,79.39
2022-08-31T02:55:19.063Z,79.29
2022-08-31T02:56:19.048Z,79.49
2022-08-31T02:57:19.064Z,79.59
2022-08-31T02:58:23.825Z,79.39
2022-08-31T02:59:21.046Z,79.79
2022-08-31T03:00:18.996Z,79.49
2022-08-31T03:01:19.057Z,79.90
2022-08-31T03:02:19.159Z,80.04
2022-08-31T03:03:19.335Z,80.10
2022-08-31T03:04:19.043Z,80.13
2022-08-31T03:05:18.957Z,80.10
2022-08-31T03:06:18.969Z,80.64
2022-08-31T03:07:18.956Z,80.30
2022-08-31T03:08:18.946Z,80.64
2022-08-31T03:09:18.953Z,80.54
2022-08-31T03:10:18.929Z,80.64
2022-08-31T03:11:18.931Z,80.64
2022-08-31T03:12:18.956Z,80.74
2022-08-31T03:13:18.984Z,80.64
2022-08-31T03:14:18.931Z,80.84
2022-08-31T03:15:18.893Z,81.15
2022-08-31T03:16:18.982Z,81.35
2022-08-31T03:17:18.875Z,81.25
2022-08-31T03:18:18.881Z,81.39
2022-08-31T03:19:18.889Z,81.35
2022-08-31T03:20:18.854Z,81.76
2022-08-31T03:21:18.904Z,81.29
2022-08-31T03:22:18.853Z,81.39
2022-08-31T03:23:18.960Z,81.09
2022-08-31T03:24:18.886Z,81.59
2022-08-31T03:25:18.843Z,81.79
2022-08-31T03:26:18.824Z,81.29
2022-08-31T03:27:18.826Z,81.69
2022-08-31T03:28:18.797Z,81.55
2022-08-31T03:29:18.808Z,81.65
2022-08-31T03:30:19.472Z,81.85
2022-08-31T03:31:18.859Z,81.90
2022-08-31T03:32:18.770Z,81.85
2022-08-31T03:33:18.888Z,81.76
2022-08-31T03:34:18.776Z,82.36
2022-08-31T03:35:18.768Z,82.20
2022-08-31T03:36:18.742Z,81.90
2022-08-31T03:37:18.757Z,81.79
2022-08-31T03:38:18.731Z,82.40
2022-08-31T03:39:18.887Z,82.30
2022-08-31T03:40:18.744Z,82.40
2022-08-31T03:41:18.735Z,82.30
2022-08-31T03:42:18.701Z,82.30
2022-08-31T03:43:18.849Z,81.90
2022-08-31T03:44:18.717Z,82.60
2022-08-31T03:45:18.690Z,82.40
2022-08-31T03:46:18.736Z,82.60
2022-08-31T03:47:18.779Z,82.40
2022-08-31T03:48:18.694Z,82.40
2022-08-31T03:49:18.669Z,82.60
2022-08-31T03:50:18.651Z,82.60
2022-08-31T03:51:18.632Z,83.11
2022-08-31T03:52:19.645Z,82.81
2022-08-31T03:53:22.701Z,83.41
2022-08-31T03:54:19.696Z,82.60
2022-08-31T03:55:19.623Z,82.50
2022-08-31T03:56:18.615Z,82.40
2022-08-31T03:57:18.662Z,82.81
2022-08-31T03:58:18.593Z,83.01
2022-08-31T03:59:18.616Z,82.70
2022-08-31T04:00:18.609Z,82.70
2022-08-31T04:01:18.675Z,82.90
2022-08-31T04:02:18.621Z,83.41
2022-08-31T04:03:18.805Z,83.51
2022-08-31T04:04:18.592Z,83.41
2022-08-31T04:05:18.552Z,82.60
2022-08-31T04:06:18.552Z,82.67
2022-08-31T04:07:18.529Z,82.50
2022-08-31T04:08:18.526Z,82.70
2022-08-31T04:09:18.554Z,82.50
2022-08-31T04:10:18.513Z,82.81
2022-08-31T04:11:20.170Z,83.21
2022-08-31T04:12:19.561Z,83.41
2022-08-31T04:13:18.687Z,83.41
2022-08-31T04:14:18.496Z,83.72
2022-08-31T04:15:18.483Z,83.35
2022-08-31T04:16:18.612Z,83.65
2022-08-31T04:17:18.480Z,83.65
2022-08-31T04:18:18.476Z,83.31
2022-08-31T04:19:18.467Z,83.92
2022-08-31T04:20:18.438Z,83.55
2022-08-31T04:21:19.463Z,83.76
2022-08-31T04:22:18.421Z,83.72
2022-08-31T04:23:18.567Z,83.61
2022-08-31T04:24:18.447Z,83.55
2022-08-31T04:25:18.405Z,83.31
2022-08-31T04:26:18.413Z,83.92
2022-08-31T04:27:18.364Z,83.82
2022-08-31T04:28:18.413Z,83.72
2022-08-31T04:29:18.387Z,83.51
2022-08-31T04:30:18.362Z,83.72
2022-08-31T04:31:18.417Z,83.61
2022-08-31T04:32:18.338Z,83.72
2022-08-31T04:33:18.531Z,83.72
2022-08-31T04:34:18.358Z,83.72
2022-08-31T04:35:18.356Z,83.82
2022-08-31T04:36:18.315Z,83.58
2022-08-31T04:37:18.332Z,83.27
2022-08-31T04:38:18.326Z,82.60
2022-08-31T04:39:18.385Z,82.76
2022-08-31T04:40:18.377Z,82.81
2022-08-31T04:41:18.289Z,82.56
2022-08-31T04:42:18.280Z,82.87
2022-08-31T04:43:18.563Z,82.67
2022-08-31T04:44:20.077Z,82.67
2022-08-31T04:45:19.272Z,82.97
2022-08-31T04:46:18.294Z,83.01
2022-08-31T04:47:18.253Z,82.46
2022-08-31T04:48:18.259Z,82.46
2022-08-31T04:49:18.277Z,82.56
2022-08-31T04:50:18.253Z,82.56
2022-08-31T04:51:18.221Z,81.85
2022-08-31T04:52:18.217Z,82.60
2022-08-31T04:53:18.397Z,82.10
2022-08-31T04:54:18.218Z,82.67
2022-08-31T04:55:18.238Z,82.40
2022-08-31T04:56:18.192Z,81.90
2022-08-31T04:57:18.179Z,82.40
2022-08-31T04:58:18.179Z,82.46
2022-08-31T04:59:18.199Z,82.81
2022-08-31T05:00:18.182Z,82.70
2022-08-31T05:01:18.229Z,82.90
2022-08-31T05:02:18.209Z,83.37
2022-08-31T05:03:18.237Z,82.97
2022-08-31T05:04:18.165Z,83.27
2022-08-31T05:05:18.148Z,83.37
2022-08-31T05:06:18.127Z,83.37
2022-08-31T05:07:18.159Z,83.27
2022-08-31T05:08:18.112Z,82.87
2022-08-31T05:09:18.116Z,82.90
2022-08-31T05:10:18.103Z,83.33
2022-08-31T05:11:21.729Z,82.87
2022-08-31T05:12:18.086Z,82.56
2022-08-31T05:13:18.227Z,82.42
2022-08-31T05:14:18.101Z,82.97
2022-08-31T05:15:18.147Z,82.67
2022-08-31T05:16:18.091Z,82.83
2022-08-31T05:17:18.041Z,82.76
2022-08-31T05:18:18.072Z,83.13
2022-08-31T05:19:18.041Z,82.42
2022-08-31T05:20:18.066Z,82.32
2022-08-31T05:21:18.039Z,81.92
2022-08-31T05:22:18.007Z,82.53
2022-08-31T05:23:18.174Z,82.42
2022-08-31T05:24:18.041Z,82.62
2022-08-31T05:25:17.988Z,83.03
2022-08-31T05:26:17.988Z,82.53
2022-08-31T05:27:17.975Z,82.83
2022-08-31T05:28:17.991Z,82.42
2022-08-31T05:29:17.988Z,82.42
2022-08-31T05:30:18.079Z,82.53
2022-08-31T05:31:17.971Z,82.62
2022-08-31T05:32:17.953Z,82.73
2022-08-31T05:33:18.101Z,82.28
2022-08-31T05:34:17.941Z,82.49
2022-08-31T05:35:17.928Z,82.49
2022-08-31T05:36:17.917Z,82.49
2022-08-31T05:37:17.896Z,82.28
2022-08-31T05:38:17.912Z,82.49
2022-08-31T05:39:17.941Z,82.28
2022-08-31T05:40:17.945Z,82.39
2022-08-31T05:41:17.886Z,81.78
2022-08-31T05:42:17.906Z,82.59
2022-08-31T05:43:20.016Z,82.18
2022-08-31T05:44:18.065Z,81.44
2022-08-31T05:45:17.847Z,82.28
2022-08-31T05:46:17.878Z,82.28
2022-08-31T05:47:17.839Z,82.18
2022-08-31T05:48:17.848Z,81.44
2022-08-31T05:49:17.930Z,81.84
2022-08-31T05:50:17.813Z,81.84
2022-08-31T05:51:17.870Z,81.40
2022-08-31T05:52:17.886Z,81.50
2022-08-31T05:53:17.944Z,81.50
2022-08-31T05:54:17.825Z,81.84
2022-08-31T05:55:17.810Z,80.79
2022-08-31T05:56:19.075Z,81.20
2022-08-31T05:57:18.493Z,81.60
2022-08-31T05:58:19.902Z,80.79
2022-08-31T05:59:18.774Z,80.99
2022-08-31T06:00:17.774Z,81.30
2022-08-31T06:01:17.814Z,81.20
2022-08-31T06:02:19.305Z,81.10
2022-08-31T06:03:19.005Z,81.20
2022-08-31T06:04:17.730Z,81.26
2022-08-31T06:05:17.741Z,80.45
2022-08-31T06:06:17.741Z,80.79
2022-08-31T06:07:17.698Z,80.55
2022-08-31T06:08:17.698Z,80.65
2022-08-31T06:09:17.711Z,80.51
2022-08-31T06:10:17.686Z,80.65
2022-08-31T06:11:17.665Z,80.45
2022-08-31T06:12:17.662Z,80.76
2022-08-31T06:13:17.770Z,80.55
2022-08-31T06:14:18.823Z,80.25
2022-08-31T06:15:17.650Z,80.35
2022-08-31T06:16:17.795Z,80.65
2022-08-31T06:17:17.689Z,80.45
2022-08-31T06:18:17.624Z,81.05
2022-08-31T06:19:17.626Z,79.94
2022-08-31T06:20:18.016Z,80.85
2022-08-31T06:21:18.611Z,80.62
2022-08-31T06:22:17.621Z,80.15
2022-08-31T06:23:17.873Z,80.31
2022-08-31T06:24:17.593Z,80.51
2022-08-31T06:25:17.726Z,80.31
2022-08-31T06:26:17.576Z,80.01
2022-08-31T06:27:17.557Z,80.41
2022-08-31T06:28:17.564Z,80.62
2022-08-31T06:29:17.598Z,80.41
2022-08-31T06:30:17.563Z,80.62
2022-08-31T06:31:17.596Z,80.51
2022-08-31T06:32:17.539Z,80.62
2022-08-31T06:33:17.577Z,80.21
2022-08-31T06:34:17.566Z,80.01
2022-08-31T06:35:17.524Z,80.41
2022-08-31T06:36:17.546Z,80.01
2022-08-31T06:37:19.025Z,80.01
2022-08-31T06:38:17.491Z,79.91
2022-08-31T06:39:17.516Z,79.91
2022-08-31T06:40:17.606Z,79.36
2022-08-31T06:41:17.488Z,80.27
2022-08-31T06:42:17.485Z,80.31
2022-08-31T06:43:17.613Z,79.67
2022-08-31T06:44:17.484Z,80.47
2022-08-31T06:45:17.446Z,79.87
2022-08-31T06:46:17.462Z,79.57
2022-08-31T06:47:21.982Z,79.47
2022-08-31T06:48:19.450Z,79.27
2022-08-31T06:49:17.445Z,78.96
2022-08-31T06:50:17.425Z,79.57
2022-08-31T06:51:17.398Z,79.06
2022-08-31T06:52:17.401Z,79.06
2022-08-31T06:53:17.523Z,79.36
2022-08-31T06:54:31.085Z,79.13
2022-08-31T06:55:19.389Z,78.86
2022-08-31T06:56:20.617Z,79.13
2022-08-31T06:57:17.362Z,79.29
2022-08-31T06:58:17.362Z,78.32
2022-08-31T06:59:17.403Z,78.19
2022-08-31T07:00:17.368Z,78.28
2022-08-31T07:01:20.461Z,77.88
2022-08-31T07:02:18.484Z,77.68
2022-08-31T07:03:17.525Z,78.19
2022-08-31T07:04:17.336Z,77.04
2022-08-31T07:05:19.811Z,77.55
2022-08-31T07:06:18.392Z,77.24
2022-08-31T07:07:17.303Z,76.94
2022-08-31T07:08:17.327Z,77.14
2022-08-31T07:09:17.322Z,77.00
2022-08-31T07:10:17.276Z,76.70
2022-08-31T07:11:17.266Z,76.10
2022-08-31T07:12:17.262Z,75.76
2022-08-31T07:13:17.467Z,75.26
2022-08-31T07:14:17.257Z,75.86
2022-08-31T07:15:17.257Z,74.79
2022-08-31T07:16:17.301Z,75.05
2022-08-31T07:17:17.228Z,75.35
2022-08-31T07:18:17.229Z,74.75
2022-08-31T07:19:17.246Z,75.26
2022-08-31T07:20:17.375Z,75.46
2022-08-31T07:21:17.246Z,75.05
2022-08-31T07:22:17.193Z,75.56
2022-08-31T07:23:17.232Z,75.12
2022-08-31T07:24:17.193Z,74.52
2022-08-31T07:25:17.203Z,74.01
2022-08-31T07:26:17.162Z,74.72
2022-08-31T07:27:18.117Z,74.52
2022-08-31T07:28:17.212Z,75.32
2022-08-31T07:29:17.170Z,74.68
2022-08-31T07:30:17.157Z,74.78
2022-08-31T07:31:17.549Z,73.47
2022-08-31T07:32:17.131Z,73.81
2022-08-31T07:33:17.161Z,73.71
2022-08-31T07:34:17.128Z,74.92
2022-08-31T07:35:17.121Z,74.82
2022-08-31T07:36:17.090Z,73.91
2022-08-31T07:37:19.522Z,74.11
2022-08-31T07:38:19.748Z,73.47
2022-08-31T07:39:17.097Z,72.97
2022-08-31T07:40:17.108Z,73.71
2022-08-31T07:41:17.046Z,73.78
2022-08-31T07:42:17.041Z,73.68
2022-08-31T07:43:17.077Z,73.58
2022-08-31T07:44:17.803Z,73.14
2022-08-31T07:45:17.036Z,72.64
2022-08-31T07:46:17.075Z,73.41
2022-08-31T07:47:17.004Z,72.30
2022-08-31T07:48:17.007Z,72.06
2022-08-31T07:49:16.995Z,72.56
2022-08-31T07:50:17.004Z,71.47
2022-08-31T07:51:16.985Z,71.16
2022-08-31T07:52:16.975Z,71.47
2022-08-31T07:53:17.238Z,71.73
2022-08-31T07:54:16.945Z,71.23
2022-08-31T07:55:16.974Z,70.76
2022-08-31T07:56:16.939Z,71.90
2022-08-31T07:57:16.947Z,71.80
2022-08-31T07:58:16.929Z,71.86
2022-08-31T07:59:17.915Z,71.47
2022-08-31T08:00:16.921Z,71.43
2022-08-31T08:01:16.895Z,70.73
2022-08-31T08:02:17.698Z,69.73
2022-08-31T08:03:18.003Z,71.03
2022-08-31T08:04:16.879Z,69.73
2022-08-31T08:05:16.895Z,68.99
2022-08-31T08:06:16.866Z,68.89
2022-08-31T08:07:16.873Z,69.59
2022-08-31T08:08:16.866Z,69.49
2022-08-31T08:09:24.596Z,70.03
2022-08-31T08:10:17.854Z,70.03
2022-08-31T08:11:17.833Z,69.39
2022-08-31T08:12:16.823Z,70.03
2022-08-31T08:13:16.859Z,69.22
2022-08-31T08:14:16.811Z,69.82
2022-08-31T08:15:16.832Z,70.03
2022-08-31T08:16:16.829Z,69.39
2022-08-31T08:17:16.782Z,68.89
2022-08-31T08:18:16.783Z,68.59
2022-08-31T08:19:16.851Z,68.85
2022-08-31T08:20:16.778Z,68.46
2022-08-31T08:21:17.795Z,68.02
2022-08-31T08:27:18.035Z,65.99
2022-08-31T08:28:38.823Z,67.12
2022-08-31T08:29:20.058Z,66.72
2022-08-31T08:30:17.991Z,66.65
2022-08-31T08:31:17.879Z,67.82
2022-08-31T08:32:19.057Z,67.45
2022-08-31T08:33:19.877Z,67.72
2022-08-31T08:34:19.153Z,67.59
2022-08-31T08:35:18.960Z,67.66
2022-08-31T08:36:18.868Z,67.25
2022-08-31T08:37:31.060Z,66.05
2022-08-31T08:38:19.875Z,65.55
2022-08-31T08:39:18.858Z,66.25
2022-08-31T08:40:18.906Z,66.09
2022-08-31T08:41:18.841Z,66.69
2022-08-31T08:42:18.825Z,66.59
2022-08-31T08:43:18.996Z,66.89
2022-08-31T08:44:18.805Z,66.66
2022-08-31T08:45:18.847Z,66.28
2022-08-31T08:46:33.901Z,66.05
2022-08-31T08:47:20.959Z,65.55
2022-08-31T08:48:19.530Z,66.16
2022-08-31T08:49:18.804Z,66.09
2022-08-31T08:50:18.771Z,65.75
2022-08-31T08:51:18.772Z,66.05
2022-08-31T08:52:18.745Z,65.69
2022-08-31T08:53:18.893Z,64.89
2022-08-31T08:54:18.734Z,65.42
2022-08-31T08:55:18.757Z,65.52
2022-08-31T08:56:32.681Z,64.89
2022-08-31T08:57:20.753Z,64.69
2022-08-31T08:58:18.757Z,64.29
2022-08-31T08:59:20.274Z,64.49
2022-08-31T09:00:19.746Z,64.42
2022-08-31T09:01:18.724Z,65.75
2022-08-31T09:02:18.717Z,65.55
2022-08-31T09:03:18.751Z,65.55
2022-08-31T09:04:18.660Z,65.75
2022-08-31T09:05:18.688Z,66.42
2022-08-31T09:06:18.655Z,65.33
2022-08-31T09:07:18.661Z,65.02
2022-08-31T09:08:18.624Z,64.83
2022-08-31T09:09:18.658Z,64.32
2022-08-31T09:10:18.706Z,64.69
2022-08-31T09:11:18.644Z,64.79
2022-08-31T09:12:18.606Z,64.39
2022-08-31T09:13:18.777Z,63.76
2022-08-31T09:14:18.581Z,63.76
2022-08-31T09:15:18.609Z,63.86
2022-08-31T09:16:18.602Z,63.53
2022-08-31T09:17:18.582Z,63.03
2022-08-31T09:18:18.581Z,63.96
2022-08-31T09:19:18.998Z,64.06
2022-08-31T09:20:18.583Z,63.03
2022-08-31T09:21:18.565Z,62.34
2022-08-31T09:22:18.539Z,62.34
2022-08-31T09:23:18.639Z,62.40
2022-08-31T09:24:18.527Z,62.10
2022-08-31T09:25:18.562Z,62.10
2022-08-31T09:26:18.537Z,62.81
2022-08-31T09:27:18.592Z,62.50
2022-08-31T09:28:18.489Z,61.80
2022-08-31T09:29:18.489Z,62.48
2022-08-31T09:30:18.568Z,61.65
2022-08-31T09:31:18.552Z,60.92
2022-08-31T09:32:18.465Z,60.45
2022-08-31T09:33:18.588Z,60.95
2022-08-31T09:34:18.437Z,60.42
2022-08-31T09:35:18.452Z,60.02
2022-08-31T09:36:18.446Z,60.62
2022-08-31T09:37:18.445Z,59.42
2022-08-31T09:38:18.419Z,60.32
2022-08-31T09:39:18.446Z,60.42
2022-08-31T09:40:19.663Z,60.02
2022-08-31T09:41:19.405Z,60.09
2022-08-31T09:42:18.399Z,59.52
2022-08-31T09:43:18.539Z,59.92
2022-08-31T09:44:18.376Z,59.52
2022-08-31T09:45:18.394Z,59.30
2022-08-31T09:46:18.465Z,59.22
2022-08-31T09:47:18.352Z,59.19
2022-08-31T09:48:18.342Z,58.67
2022-08-31T09:49:18.337Z,58.76
2022-08-31T09:50:18.480Z,58.44
2022-08-31T09:51:18.333Z,57.45
2022-08-31T09:52:18.324Z,57.97
2022-08-31T09:53:18.462Z,58.80
2022-08-31T09:54:18.307Z,58.33
2022-08-31T09:55:18.340Z,59.52
2022-08-31T09:56:18.327Z,59.22
2022-08-31T09:57:18.303Z,58.87
2022-08-31T09:58:18.305Z,59.44
2022-08-31T09:59:18.285Z,59.27
2022-08-31T10:00:18.305Z,57.54
2022-08-31T10:01:18.326Z,57.80
2022-08-31T10:02:18.259Z,57.77
2022-08-31T10:03:18.392Z,57.77
2022-08-31T10:04:19.233Z,57.64
2022-08-31T10:05:18.313Z,57.45
2022-08-31T10:06:18.624Z,56.65
2022-08-31T10:07:20.213Z,57.02
2022-08-31T10:08:19.695Z,56.23
2022-08-31T10:09:19.203Z,55.85
2022-08-31T10:10:30.331Z,57.05
2022-08-31T10:11:19.179Z,57.54
2022-08-31T10:12:20.259Z,56.62
2022-08-31T10:13:18.351Z,57.12
2022-08-31T10:14:18.164Z,57.29
2022-08-31T10:15:18.194Z,55.60
2022-08-31T10:16:18.347Z,56.82
2022-08-31T10:17:18.155Z,56.82
2022-08-31T10:18:18.183Z,57.45
2022-08-31T10:19:18.390Z,57.90
2022-08-31T10:20:18.175Z,57.28
2022-08-31T10:21:18.159Z,57.37
2022-08-31T10:22:18.109Z,55.35
2022-08-31T10:24:13.176Z,55.63
2022-08-31T10:24:24.968Z,55.03
2022-08-31T10:25:18.098Z,53.24
2022-08-31T10:26:18.092Z,54.43
2022-08-31T10:27:18.079Z,53.91
2022-08-31T10:28:18.336Z,53.64
2022-08-31T10:29:21.169Z,53.81
2022-08-31T10:30:20.130Z,52.81
2022-08-31T10:31:18.097Z,52.19
2022-08-31T10:32:18.070Z,52.81
2022-08-31T10:33:19.182Z,52.49
2022-08-31T10:34:18.051Z,52.56
2022-08-31T10:35:18.073Z,52.17
2022-08-31T10:36:18.010Z,51.65
2022-08-31T10:37:17.991Z,52.26
2022-08-31T10:38:20.111Z,52.67
2022-08-31T10:39:18.997Z,52.47
2022-08-31T10:40:18.136Z,52.94
2022-08-31T10:41:19.172Z,51.77
2022-08-31T10:42:18.159Z,52.19
2022-08-31T10:43:18.066Z,53.16
2022-08-31T10:44:17.974Z,51.45
2022-08-31T10:45:18.969Z,51.75
2022-08-31T10:46:18.067Z,51.03
2022-08-31T10:47:32.582Z,51.35
2022-08-31T10:48:18.942Z,51.84
2022-08-31T10:49:17.934Z,51.87
2022-08-31T10:50:17.932Z,51.30
2022-08-31T10:51:17.936Z,52.81
2022-08-31T10:52:17.901Z,52.81
2022-08-31T10:53:18.120Z,52.00
2022-08-31T10:54:17.891Z,51.47
2022-08-31T10:55:17.894Z,51.54
2022-08-31T10:56:17.901Z,52.24
2022-08-31T10:57:21.478Z,51.25
2022-08-31T10:58:18.750Z,51.72
2022-08-31T10:59:17.883Z,50.83
2022-08-31T11:00:17.893Z,50.90
2022-08-31T11:01:17.863Z,50.43
2022-08-31T11:02:19.774Z,51.25
2022-08-31T11:03:18.075Z,51.15
2022-08-31T11:04:19.165Z,51.28
2022-08-31T11:05:18.504Z,50.98
2022-08-31T11:06:18.008Z,50.56
2022-08-31T11:07:17.787Z,49.54
2022-08-31T11:08:17.789Z,49.21
2022-08-31T11:09:17.784Z,48.99
2022-08-31T11:10:17.789Z,49.41
2022-08-31T11:11:17.787Z,49.61
2022-08-31T11:12:17.763Z,49.44
2022-08-31T11:13:17.818Z,49.44
2022-08-31T11:14:17.746Z,50.35
2022-08-31T11:15:17.754Z,51.25
2022-08-31T11:16:17.807Z,50.35
2022-08-31T11:17:17.713Z,50.11
2022-08-31T11:18:17.864Z,48.10
2022-08-31T11:19:17.690Z,48.13
2022-08-31T11:20:17.738Z,47.53
2022-08-31T11:21:17.680Z,48.10
2022-08-31T11:22:17.659Z,47.88
2022-08-31T11:23:17.848Z,46.98
2022-08-31T11:24:17.671Z,46.55
2022-08-31T11:25:17.669Z,46.55
2022-08-31T11:26:17.646Z,46.03
2022-08-31T11:27:17.643Z,46.62
2022-08-31T11:28:17.633Z,46.94
2022-08-31T11:29:17.627Z,45.97
2022-08-31T11:30:17.651Z,47.11
2022-08-31T11:31:17.617Z,48.00
2022-08-31T11:32:17.603Z,47.11
2022-08-31T11:33:17.820Z,47.50
2022-08-31T11:34:17.795Z,47.78
2022-08-31T11:35:17.599Z,46.25
2022-08-31T11:36:17.569Z,46.12
2022-08-31T11:37:17.564Z,46.03
2022-08-31T11:38:17.566Z,44.01
2022-08-31T11:39:17.567Z,44.46
2022-08-31T11:40:17.601Z,43.41
2022-08-31T11:41:17.554Z,42.60
2022-08-31T11:42:17.540Z,42.82
2022-08-31T11:43:17.739Z,42.28
2022-08-31T11:44:17.531Z,41.67
2022-08-31T11:45:17.555Z,39.84
2022-08-31T11:46:17.773Z,38.95
2022-08-31T11:47:18.527Z,40.66
2022-08-31T11:48:17.495Z,41.31
2022-08-31T11:49:17.487Z,42.88
2022-08-31T11:50:17.517Z,43.52
2022-08-31T11:51:17.483Z,43.62
2022-08-31T11:52:17.470Z,43.57
2022-08-31T11:53:17.744Z,43.43
2022-08-31T11:54:17.458Z,43.23
2022-08-31T11:55:17.464Z,42.56
2022-08-31T11:56:17.456Z,41.89
2022-08-31T11:57:17.446Z,41.09
2022-08-31T11:58:20.132Z,39.09
2022-08-31T11:59:18.351Z,37.70
2022-08-31T12:00:17.441Z,36.08
2022-08-31T12:01:17.431Z,36.47
2022-08-31T12:02:17.431Z,37.60
2022-08-31T12:03:17.443Z,39.01
2022-08-31T12:04:20.554Z,37.15
2022-08-31T12:05:18.454Z,34.84
2022-08-31T12:06:17.371Z,34.50
2022-08-31T12:07:17.393Z,34.52
2022-08-31T12:08:17.390Z,35.14
2022-08-31T12:09:17.360Z,35.04
2022-08-31T12:10:17.365Z,34.52
2022-08-31T12:11:17.372Z,35.58
2022-08-31T12:12:17.356Z,37.77
2022-08-31T12:13:18.804Z,40.53
2022-08-31T12:14:17.326Z,41.47
2022-08-31T12:15:17.335Z,42.99
2022-08-31T12:16:17.367Z,43.31
2022-08-31T12:17:17.308Z,42.43
2022-08-31T12:18:17.309Z,43.33
2022-08-31T12:19:18.072Z,44.35
2022-08-31T12:20:17.287Z,44.86
2022-08-31T12:21:17.316Z,45.56
2022-08-31T12:22:17.280Z,45.06
2022-08-31T12:23:30.206Z,45.95
2022-08-31T12:24:18.876Z,46.07
2022-08-31T12:25:17.266Z,48.52
2022-08-31T12:26:17.268Z,48.96
2022-08-31T12:27:17.249Z,48.62
2022-08-31T12:28:17.253Z,47.95
2022-08-31T12:29:17.238Z,47.85
2022-08-31T12:30:17.224Z,48.47
2022-08-31T12:31:17.318Z,48.96
2022-08-31T12:32:17.218Z,48.39
2022-08-31T12:33:17.335Z,48.19
2022-08-31T12:34:17.215Z,47.40
2022-08-31T12:35:17.187Z,48.17
2022-08-31T12:36:17.249Z,48.27
2022-08-31T12:37:17.182Z,45.06
2022-08-31T12:38:17.233Z,43.03
2022-08-31T12:39:17.213Z,41.99
2022-08-31T12:40:17.257Z,39.56
2022-08-31T12:41:17.204Z,38.23
2022-08-31T12:42:17.150Z,37.80
2022-08-31T12:43:18.168Z,37.86
2022-08-31T12:44:17.142Z,35.88
2022-08-31T12:45:17.387Z,36.66
2022-08-31T12:46:17.218Z,36.42
2022-08-31T12:47:20.101Z,36.37
2022-08-31T12:48:18.093Z,36.47
2022-08-31T12:49:17.105Z,36.39
2022-08-31T12:50:18.055Z,35.16
2022-08-31T12:51:17.089Z,35.37
2022-08-31T12:52:17.078Z,38.05
2022-08-31T12:53:17.178Z,39.20
2022-08-31T12:54:17.081Z,42.14
2022-08-31T12:55:17.247Z,43.69
2022-08-31T12:56:17.045Z,42.82
2022-08-31T12:57:18.264Z,44.02